Time;durP1;ratioP1;P1;durP2;ratioP2;P2;SDS_P1;SDS_P2;PMS_P1;PMS_P2;Temp;Humidity;BMP_temperature;BMP_pressure;BME280_temperature;BME280_humidity;BME280_pressure;Samples;Min_cycle;Max_cycle;Signal;HPM_P1;HPM_P2
2024/01/11 00:01:49;;;;;;;23.47;14.67;;;;;;;;;;6246967;23;20382;-69
2024/01/11 00:04:15;;;;;;;30.17;14.97;;;;;;;;;;6246549;23;20741;-69
2024/01/11 00:06:44;;;;;;;29.43;14.17;;;;;;;;;;6246802;23;20438;-69
2024/01/11 00:09:10;;;;;;;24.10;15.83;;;;;;;;;;6246604;23;20371;-69
2024/01/11 00:11:36;;;;;;;23.03;14.57;;;;;;;;;;6246867;23;20389;-70
2024/01/11 00:14:02;;;;;;;24.37;15.30;;;;;;;;;;6246969;23;20374;-69
2024/01/11 00:16:28;;;;;;;27.67;15.57;;;;;;;;;;6246599;23;20382;-69
2024/01/11 00:18:54;;;;;;;23.37;15.10;;;;;;;;;;6246419;23;20479;-69
2024/01/11 00:21:20;;;;;;;21.30;14.77;;;;;;;;;;6246790;23;20465;-69
2024/01/11 00:23:46;;;;;;;29.37;14.30;;;;;;;;;;6246431;23;20378;-69
2024/01/11 00:26:14;;;;;;;22.90;13.10;;;;;;;;;;6246359;23;20707;-69
2024/01/11 00:28:40;;;;;;;27.97;14.43;;;;;;;;;;6246342;23;20851;-69
2024/01/11 00:31:07;;;;;;;23.33;12.90;;;;;;;;;;6246818;23;20385;-69
2024/01/11 00:33:33;;;;;;;25.37;14.27;;;;;;;;;;6246413;23;20385;-68
2024/01/11 00:35:59;;;;;;;21.70;13.30;;;;;;;;;;6246699;23;20410;-68
2024/01/11 00:38:25;;;;;;;24.73;13.03;;;;;;;;;;6245797;23;20421;-69
2024/01/11 00:40:51;;;;;;;23.00;13.27;;;;;;;;;;6246848;23;20385;-69
2024/01/11 00:43:17;;;;;;;20.43;13.33;;;;;;;;;;6246940;23;20437;-69
2024/01/11 00:45:43;;;;;;;22.53;14.00;;;;;;;;;;6246357;23;20371;-68
2024/01/11 00:48:09;;;;;;;22.33;13.87;;;;;;;;;;6246438;23;20508;-69
2024/01/11 00:50:34;;;;;;;23.33;12.87;;;;;;;;;;6246536;23;20739;-69
2024/01/11 00:53:01;;;;;;;18.87;12.30;;;;;;;;;;6245936;23;20374;-68
2024/01/11 00:55:27;;;;;;;23.47;13.40;;;;;;;;;;6246075;23;20366;-68
2024/01/11 00:57:53;;;;;;;18.87;12.67;;;;;;;;;;6219142;23;20398;-69
2024/01/11 01:00:19;;;;;;;25.90;13.60;;;;;;;;;;6246627;23;20370;-69
2024/01/11 01:02:45;;;;;;;25.10;14.60;;;;;;;;;;6246056;23;20386;-69
2024/01/11 01:05:11;;;;;;;25.67;14.23;;;;;;;;;;6246306;23;20684;-69
2024/01/11 01:07:37;;;;;;;22.43;12.90;;;;;;;;;;6246573;23;20935;-69
2024/01/11 01:10:03;;;;;;;25.73;14.30;;;;;;;;;;6246396;23;20401;-69
2024/01/11 01:12:29;;;;;;;23.10;14.23;;;;;;;;;;6246044;23;20848;-69
2024/01/11 01:14:55;;;;;;;23.10;14.30;;;;;;;;;;6246088;23;20369;-69
2024/01/11 01:17:22;;;;;;;22.03;13.80;;;;;;;;;;6245925;23;20374;-69
2024/01/11 01:19:48;;;;;;;20.20;12.80;;;;;;;;;;6246383;23;20447;-69
2024/01/11 01:22:14;;;;;;;23.33;13.37;;;;;;;;;;6245837;23;20860;-69
2024/01/11 01:24:40;;;;;;;27.00;15.67;;;;;;;;;;6246195;23;20772;-69
2024/01/11 01:27:06;;;;;;;26.63;16.50;;;;;;;;;;6246186;23;20429;-70
2024/01/11 01:29:32;;;;;;;27.17;13.53;;;;;;;;;;6245839;23;20373;-69
2024/01/11 01:31:58;;;;;;;21.50;14.40;;;;;;;;;;6246264;23;20387;-69
2024/01/11 01:34:24;;;;;;;28.20;17.87;;;;;;;;;;6245932;23;20738;-69
2024/01/11 01:36:50;;;;;;;23.80;14.90;;;;;;;;;;6246076;23;20456;-68
2024/01/11 01:39:16;;;;;;;26.00;14.63;;;;;;;;;;6245718;23;20426;-69
2024/01/11 01:41:42;;;;;;;30.33;15.07;;;;;;;;;;6245872;23;20375;-69
2024/01/11 01:44:08;;;;;;;20.00;12.83;;;;;;;;;;6245892;23;20875;-69
2024/01/11 01:46:34;;;;;;;21.43;14.80;;;;;;;;;;6245603;23;20421;-69
2024/01/11 01:49:01;;;;;;;23.80;14.70;;;;;;;;;;6219395;23;20451;-69
2024/01/11 01:51:29;;;;;;;18.73;13.00;;;;;;;;;;6249421;23;20397;-69
2024/01/11 01:53:57;;;;;;;24.70;14.47;;;;;;;;;;6249465;23;20413;-69
2024/01/11 01:56:23;;;;;;;25.87;14.33;;;;;;;;;;6249448;23;20370;-69
2024/01/11 01:58:51;;;;;;;27.40;14.10;;;;;;;;;;6249424;23;20377;-69
2024/01/11 02:01:17;;;;;;;31.40;15.70;;;;;;;;;;6249195;23;20750;-69
2024/01/11 02:03:44;;;;;;;23.37;15.37;;;;;;;;;;6250363;23;20385;-69
2024/01/11 02:06:10;;;;;;;17.87;12.60;;;;;;;;;;6249232;23;20400;-68
2024/01/11 02:08:36;;;;;;;20.73;13.97;;;;;;;;;;6249350;23;20864;-68
2024/01/11 02:11:03;;;;;;;26.90;15.00;;;;;;;;;;6249111;23;20867;-69
2024/01/11 02:13:29;;;;;;;23.97;14.47;;;;;;;;;;6249194;23;20374;-68
2024/01/11 02:15:55;;;;;;;28.37;13.50;;;;;;;;;;6249732;23;20386;-70
2024/01/11 02:18:21;;;;;;;22.80;13.90;;;;;;;;;;6249364;23;20381;-69
2024/01/11 02:20:47;;;;;;;52.30;20.10;;;;;;;;;;6249054;23;20382;-69
2024/01/11 02:23:18;;;;;;;25.60;14.20;;;;;;;;;;6249389;23;20374;-70
2024/01/11 02:25:44;;;;;;;143.17;48.07;;;;;;;;;;6249034;23;20737;-69
2024/01/11 02:28:11;;;;;;;42.10;20.33;;;;;;;;;;6248831;23;20468;-69
2024/01/11 02:30:37;;;;;;;163.80;57.93;;;;;;;;;;6249194;23;20750;-69
2024/01/11 02:33:04;;;;;;;66.47;25.07;;;;;;;;;;6249112;23;20934;-69
2024/01/11 02:35:30;;;;;;;33.77;19.90;;;;;;;;;;6248808;23;20381;-69
2024/01/11 02:37:55;;;;;;;25.60;14.87;;;;;;;;;;6248703;23;20378;-68
2024/01/11 02:40:22;;;;;;;22.60;13.97;;;;;;;;;;6222205;23;20480;-69
2024/01/11 02:42:48;;;;;;;19.20;12.20;;;;;;;;;;6249592;23;20379;-69
2024/01/11 02:45:14;;;;;;;24.97;14.30;;;;;;;;;;6248832;23;20775;-69
2024/01/11 02:47:40;;;;;;;20.17;13.87;;;;;;;;;;6249084;23;20476;-69
2024/01/11 02:50:07;;;;;;;25.10;14.30;;;;;;;;;;6248913;23;20366;-69
2024/01/11 02:52:33;;;;;;;20.30;13.00;;;;;;;;;;6249739;23;20484;-70
2024/01/11 02:54:59;;;;;;;20.47;12.80;;;;;;;;;;6248795;23;20390;-68
2024/01/11 02:57:25;;;;;;;23.23;14.00;;;;;;;;;;6249155;23;20869;-69
2024/01/11 02:59:52;;;;;;;21.77;13.10;;;;;;;;;;6249203;23;20362;-69
2024/01/11 03:02:18;;;;;;;20.47;12.57;;;;;;;;;;6247466;23;20762;-69
2024/01/11 03:04:44;;;;;;;23.47;14.03;;;;;;;;;;6247202;23;20370;-69
2024/01/11 03:07:10;;;;;;;24.57;13.00;;;;;;;;;;6247667;23;20828;-69
2024/01/11 03:09:36;;;;;;;20.67;12.97;;;;;;;;;;6247546;23;20770;-69
2024/01/11 03:12:02;;;;;;;22.80;12.70;;;;;;;;;;6247874;23;20371;-69
2024/01/11 03:14:28;;;;;;;23.47;14.07;;;;;;;;;;6247499;23;20370;-69
2024/01/11 03:16:54;;;;;;;18.53;12.80;;;;;;;;;;6247631;23;20851;-69
2024/01/11 03:19:20;;;;;;;24.00;13.40;;;;;;;;;;6247372;23;20692;-69
2024/01/11 03:21:46;;;;;;;19.47;12.07;;;;;;;;;;6247493;23;20531;-68
2024/01/11 03:24:13;;;;;;;16.50;12.37;;;;;;;;;;6247364;23;20704;-69
2024/01/11 03:26:39;;;;;;;34.63;14.40;;;;;;;;;;6220036;23;20472;-69
2024/01/11 03:29:06;;;;;;;18.20;12.47;;;;;;;;;;6247061;23;20377;-69
2024/01/11 03:31:32;;;;;;;21.00;12.40;;;;;;;;;;6247327;23;20382;-70
2024/01/11 03:33:58;;;;;;;19.93;11.90;;;;;;;;;;6246882;23;20433;-69
2024/01/11 03:36:24;;;;;;;22.80;13.47;;;;;;;;;;6246915;23;20382;-68
2024/01/11 03:38:50;;;;;;;22.20;12.57;;;;;;;;;;6246612;23;20452;-70
2024/01/11 03:41:16;;;;;;;17.50;11.03;;;;;;;;;;6247221;23;20452;-69
2024/01/11 03:43:42;;;;;;;23.57;13.00;;;;;;;;;;6247266;23;20840;-69
2024/01/11 03:46:08;;;;;;;20.27;12.70;;;;;;;;;;6247035;23;20466;-69
2024/01/11 03:48:35;;;;;;;21.70;11.93;;;;;;;;;;6246831;23;20389;-69
2024/01/11 03:54:05;;;;;;;22.07;12.47;;;;;;;;;;6246880;23;20432;-69
2024/01/11 03:56:31;;;;;;;16.13;11.90;;;;;;;;;;6246766;23;20832;-69
2024/01/11 03:58:57;;;;;;;22.10;12.10;;;;;;;;;;6246670;23;20457;-69
2024/01/11 04:01:23;;;;;;;17.30;12.57;;;;;;;;;;6246667;23;20468;-69
2024/01/11 04:03:49;;;;;;;19.40;12.17;;;;;;;;;;6246601;23;20374;-71
2024/01/11 04:06:22;;;;;;;23.53;12.17;;;;;;;;;;6246494;23;20465;-71
2024/01/11 04:08:48;;;;;;;19.63;11.63;;;;;;;;;;6246940;23;20390;-71
2024/01/11 04:11:14;;;;;;;22.87;13.60;;;;;;;;;;6246525;23;20366;-71
2024/01/11 04:13:40;;;;;;;19.70;11.80;;;;;;;;;;6246348;23;20389;-71
2024/01/11 04:16:06;;;;;;;21.93;12.57;;;;;;;;;;6246859;23;20378;-70
2024/01/11 04:18:33;;;;;;;19.23;12.13;;;;;;;;;;6246863;23;20393;-71
2024/01/11 04:24:02;;;;;;;21.63;13.67;;;;;;;;;;6246540;23;20357;-71
2024/01/11 04:26:28;;;;;;;21.07;11.70;;;;;;;;;;6246636;23;20631;-71
2024/01/11 04:28:54;;;;;;;21.13;12.63;;;;;;;;;;6246801;23;20712;-70
2024/01/11 04:31:20;;;;;;;20.37;12.37;;;;;;;;;;6246758;23;20383;-71
2024/01/11 04:33:46;;;;;;;22.33;12.53;;;;;;;;;;6246298;23;20374;-71
2024/01/11 04:36:13;;;;;;;15.63;11.57;;;;;;;;;;6246284;23;20374;-71
2024/01/11 04:38:39;;;;;;;19.80;12.33;;;;;;;;;;6246117;23;20425;-71
2024/01/11 04:41:12;;;;;;;16.40;11.77;;;;;;;;;;6246587;23;20378;-71
2024/01/11 04:43:44;;;;;;;20.87;11.60;;;;;;;;;;6246639;23;20440;-71
2024/01/11 04:46:16;;;;;;;32.70;18.13;;;;;;;;;;6246093;23;20379;-71
2024/01/11 04:48:42;;;;;;;19.70;13.47;;;;;;;;;;6246176;23;20382;-71
2024/01/11 04:51:08;;;;;;;27.50;16.40;;;;;;;;;;6246573;23;20470;-71
2024/01/11 04:53:37;;;;;;;24.47;13.63;;;;;;;;;;6246015;23;20375;-71
2024/01/11 04:56:03;;;;;;;20.37;12.37;;;;;;;;;;6246228;23;20370;-71
2024/01/11 04:58:29;;;;;;;21.93;13.17;;;;;;;;;;6246067;23;20742;-71
2024/01/11 05:00:55;;;;;;;18.23;13.67;;;;;;;;;;6246065;23;20374;-70
2024/01/11 05:03:21;;;;;;;24.93;14.10;;;;;;;;;;6246013;23;20809;-71
2024/01/11 05:05:47;;;;;;;25.70;14.83;;;;;;;;;;6246042;23;20381;-71
2024/01/11 05:08:13;;;;;;;21.00;14.60;;;;;;;;;;6246496;23;20433;-70
2024/01/11 05:10:39;;;;;;;20.60;13.60;;;;;;;;;;6246693;23;20374;-72
2024/01/11 05:13:05;;;;;;;22.63;13.53;;;;;;;;;;6246244;23;20910;-71
2024/01/11 05:15:31;;;;;;;28.17;14.93;;;;;;;;;;6246240;23;20382;-71
2024/01/11 05:17:57;;;;;;;22.20;14.23;;;;;;;;;;6246665;23;20382;-71
2024/01/11 05:20:23;;;;;;;21.17;12.90;;;;;;;;;;6246324;23;20375;-71
2024/01/11 05:22:49;;;;;;;27.07;14.33;;;;;;;;;;6246236;23;20481;-70
2024/01/11 05:25:15;;;;;;;19.00;14.37;;;;;;;;;;6245993;23;20370;-70
2024/01/11 05:27:41;;;;;;;24.50;13.93;;;;;;;;;;6246222;23;20497;-71
2024/01/11 05:30:07;;;;;;;20.43;13.00;;;;;;;;;;6245927;23;20402;-71
2024/01/11 05:32:34;;;;;;;21.17;13.30;;;;;;;;;;6246152;23;20379;-71
2024/01/11 05:35:00;;;;;;;22.63;15.10;;;;;;;;;;6245853;23;20397;-71
2024/01/11 05:37:26;;;;;;;17.00;12.73;;;;;;;;;;6246042;23;20374;-71
2024/01/11 05:39:54;;;;;;;20.03;13.33;;;;;;;;;;6245643;23;20429;-71
2024/01/11 05:42:20;;;;;;;21.53;13.00;;;;;;;;;;6245879;23;20377;-70
2024/01/11 05:44:46;;;;;;;19.10;12.67;;;;;;;;;;6245744;23;20374;-71
2024/01/11 05:47:12;;;;;;;21.13;13.10;;;;;;;;;;6246009;23;20457;-70
2024/01/11 05:49:38;;;;;;;19.27;13.23;;;;;;;;;;6245803;23;20370;-71
2024/01/11 05:52:04;;;;;;;22.30;13.40;;;;;;;;;;6246090;23;20368;-71
2024/01/11 05:54:30;;;;;;;22.47;13.50;;;;;;;;;;6245802;23;20397;-71
2024/01/11 05:56:58;;;;;;;23.70;13.07;;;;;;;;;;6245542;23;20374;-70
2024/01/11 05:59:24;;;;;;;21.73;13.80;;;;;;;;;;6218991;23;20465;-71
2024/01/11 06:01:50;;;;;;;20.70;13.90;;;;;;;;;;6245693;23;20408;-71
2024/01/11 06:04:16;;;;;;;23.50;13.47;;;;;;;;;;6246034;23;20687;-71
2024/01/11 06:06:42;;;;;;;32.13;13.60;;;;;;;;;;6245737;23;20413;-70
2024/01/11 06:09:10;;;;;;;19.67;13.30;;;;;;;;;;6245611;23;20409;-70
2024/01/11 06:11:36;;;;;;;17.27;11.93;;;;;;;;;;6246088;23;20375;-70
2024/01/11 06:14:02;;;;;;;20.07;11.93;;;;;;;;;;6245906;23;20509;-70
2024/01/11 06:16:28;;;;;;;19.60;12.63;;;;;;;;;;6245892;23;20628;-70
2024/01/11 06:18:54;;;;;;;25.57;13.53;;;;;;;;;;6245617;23;20378;-70
2024/01/11 06:21:20;;;;;;;19.80;13.00;;;;;;;;;;6245603;23;20689;-71
2024/01/11 06:23:46;;;;;;;21.73;12.27;;;;;;;;;;6245674;23;20431;-70
2024/01/11 06:26:12;;;;;;;20.97;14.03;;;;;;;;;;6245346;23;20373;-71
2024/01/11 06:28:38;;;;;;;23.63;13.43;;;;;;;;;;6245502;23;20464;-69
2024/01/11 06:31:04;;;;;;;26.07;15.20;;;;;;;;;;6246176;23;20406;-69
2024/01/11 06:33:32;;;;;;;33.77;16.53;;;;;;;;;;6245832;23;20424;-69
2024/01/11 06:35:58;;;;;;;23.03;15.83;;;;;;;;;;6245780;23;20382;-69
2024/01/11 06:38:24;;;;;;;29.23;15.60;;;;;;;;;;6247096;23;20439;-69
2024/01/11 06:40:50;;;;;;;27.13;16.17;;;;;;;;;;6247319;23;20836;-68
2024/01/11 06:43:16;;;;;;;27.33;17.70;;;;;;;;;;6220988;23;20394;-68
2024/01/11 06:45:45;;;;;;;31.10;17.00;;;;;;;;;;6247536;23;20386;-68
2024/01/11 06:48:11;;;;;;;38.23;20.10;;;;;;;;;;6247238;23;20421;-69
2024/01/11 06:50:37;;;;;;;30.73;16.90;;;;;;;;;;6247650;23;20377;-69
2024/01/11 06:53:03;;;;;;;30.27;17.30;;;;;;;;;;6247513;23;20374;-68
2024/01/11 06:55:29;;;;;;;33.50;17.93;;;;;;;;;;6220253;23;20461;-70
2024/01/11 06:57:55;;;;;;;26.57;16.47;;;;;;;;;;6247405;23;20383;-69
2024/01/11 07:03:25;;;;;;;23.10;13.93;;;;;;;;;;6247241;23;20411;-69
2024/01/11 07:05:51;;;;;;;21.20;14.30;;;;;;;;;;6247467;23;20382;-69
2024/01/11 07:08:17;;;;;;;22.37;15.87;;;;;;;;;;6246988;23;20433;-68
2024/01/11 07:10:43;;;;;;;21.10;15.17;;;;;;;;;;6247477;23;20381;-69
2024/01/11 07:13:11;;;;;;;24.90;15.00;;;;;;;;;;6246965;23;20406;-69
2024/01/11 07:15:37;;;;;;;24.60;15.10;;;;;;;;;;6246884;23;20371;-69
2024/01/11 07:18:03;;;;;;;23.07;14.63;;;;;;;;;;6247377;23;20374;-69
2024/01/11 07:20:29;;;;;;;24.20;15.03;;;;;;;;;;6247037;23;20374;-69
2024/01/11 07:22:55;;;;;;;26.17;16.07;;;;;;;;;;6246814;23;20469;-69
2024/01/11 07:25:21;;;;;;;23.27;15.43;;;;;;;;;;6246920;23;20424;-69
2024/01/11 07:27:47;;;;;;;22.87;14.60;;;;;;;;;;6246714;23;20425;-69
2024/01/11 07:30:13;;;;;;;23.83;14.73;;;;;;;;;;6246979;23;20367;-69
2024/01/11 07:32:39;;;;;;;25.17;15.00;;;;;;;;;;6246983;23;20397;-70
2024/01/11 07:35:06;;;;;;;24.70;17.17;;;;;;;;;;6246794;23;20443;-70
2024/01/11 07:37:32;;;;;;;27.30;17.70;;;;;;;;;;6247037;23;20394;-69
2024/01/11 07:39:58;;;;;;;33.37;18.03;;;;;;;;;;6246287;23;20499;-69
2024/01/11 07:42:24;;;;;;;34.23;18.60;;;;;;;;;;6247005;23;20429;-69
2024/01/11 07:44:51;;;;;;;29.67;16.00;;;;;;;;;;6246160;23;20753;-70
2024/01/11 07:47:17;;;;;;;32.37;16.40;;;;;;;;;;6246513;23;20434;-69
2024/01/11 07:49:43;;;;;;;23.13;14.83;;;;;;;;;;6246743;23;20377;-69
2024/01/11 07:52:09;;;;;;;41.03;17.60;;;;;;;;;;6246426;23;20707;-69
2024/01/11 07:54:35;;;;;;;29.50;16.67;;;;;;;;;;6246728;23;20377;-69
2024/01/11 07:57:02;;;;;;;30.50;18.13;;;;;;;;;;6246751;23;20370;-69
2024/01/11 07:59:29;;;;;;;31.43;15.80;;;;;;;;;;6246750;23;20458;-69
2024/01/11 08:01:55;;;;;;;25.87;15.67;;;;;;;;;;6246094;23;20382;-69
2024/01/11 08:04:21;;;;;;;25.57;15.10;;;;;;;;;;6246412;23;20378;-69
2024/01/11 08:06:47;;;;;;;26.03;16.00;;;;;;;;;;6219205;23;20422;-69
2024/01/11 08:09:13;;;;;;;49.53;27.57;;;;;;;;;;6246529;23;20440;-69
2024/01/11 08:11:41;;;;;;;53.40;29.60;;;;;;;;;;6246104;23;20378;-69
2024/01/11 08:14:07;;;;;;;54.33;30.30;;;;;;;;;;6246258;23;20378;-69
2024/01/11 08:16:33;;;;;;;67.50;28.60;;;;;;;;;;6245308;23;20382;-69
2024/01/11 08:19:00;;;;;;;51.70;27.70;;;;;;;;;;6245878;23;20964;-69
2024/01/11 08:21:27;;;;;;;51.27;25.30;;;;;;;;;;6246155;23;20412;-73
2024/01/11 08:23:52;;;;;;;66.97;31.52;;;;;;;;;;6244411;23;20862;-69
2024/01/11 08:26:18;;;;;;;56.70;23.30;;;;;;;;;;6245932;23;20197;-69
2024/01/11 08:28:45;;;;;;;44.23;24.33;;;;;;;;;;6246159;23;20383;-69
2024/01/11 08:31:12;;;;;;;45.20;24.83;;;;;;;;;;6246347;23;20446;-69
2024/01/11 08:33:38;;;;;;;41.67;23.10;;;;;;;;;;6246286;23;20382;-69
2024/01/11 08:36:04;;;;;;;30.03;17.03;;;;;;;;;;6246318;23;20863;-69
2024/01/11 08:38:31;;;;;;;33.13;16.10;;;;;;;;;;6246076;23;20896;-69
2024/01/11 08:40:58;;;;;;;28.93;17.97;;;;;;;;;;6246030;23;20435;-69
2024/01/11 08:43:24;;;;;;;27.97;19.27;;;;;;;;;;6246366;23;20366;-69
2024/01/11 08:45:50;;;;;;;35.43;20.00;;;;;;;;;;6245789;23;20805;-68
2024/01/11 08:48:17;;;;;;;25.27;17.17;;;;;;;;;;6218985;23;20442;-69
2024/01/11 08:50:43;;;;;;;29.53;17.73;;;;;;;;;;6246228;23;20884;-69
2024/01/11 08:53:09;;;;;;;34.53;17.83;;;;;;;;;;6246240;23;20386;-68
2024/01/11 08:55:35;;;;;;;36.63;19.73;;;;;;;;;;6245807;23;20867;-68
2024/01/11 08:58:01;;;;;;;27.33;16.13;;;;;;;;;;6247105;23;20848;-69
2024/01/11 09:00:27;;;;;;;32.50;18.43;;;;;;;;;;6245832;23;20386;-68
2024/01/11 09:02:53;;;;;;;30.73;18.80;;;;;;;;;;6218619;23;20464;-68
2024/01/11 09:05:19;;;;;;;29.10;19.27;;;;;;;;;;6245818;23;20382;-69
2024/01/11 09:07:45;;;;;;;35.33;20.00;;;;;;;;;;6245508;23;20464;-68
2024/01/11 09:10:12;;;;;;;39.27;19.63;;;;;;;;;;6245994;23;20930;-68
2024/01/11 09:12:38;;;;;;;32.50;20.60;;;;;;;;;;6218802;23;20390;-68
2024/01/11 09:15:04;;;;;;;37.43;19.90;;;;;;;;;;6245483;23;20386;-68
2024/01/11 09:17:30;;;;;;;29.03;15.27;;;;;;;;;;6245827;23;20413;-68
2024/01/11 09:19:56;;;;;;;30.93;17.50;;;;;;;;;;6245703;23;20700;-68
2024/01/11 09:22:22;;;;;;;33.63;17.40;;;;;;;;;;6246013;23;20378;-68
2024/01/11 09:24:48;;;;;;;29.70;17.30;;;;;;;;;;6245398;23;20428;-68
2024/01/11 09:27:14;;;;;;;24.27;16.77;;;;;;;;;;6245971;23;20922;-68
2024/01/11 09:29:46;;;;;;;31.87;18.47;;;;;;;;;;6245150;23;20485;-68
2024/01/11 09:32:13;;;;;;;23.40;15.80;;;;;;;;;;6245467;23;20397;-67
2024/01/11 09:34:39;;;;;;;29.60;17.87;;;;;;;;;;6245319;23;20717;-68
2024/01/11 09:37:05;;;;;;;35.60;21.37;;;;;;;;;;6245107;23;20927;-68
2024/01/11 09:39:31;;;;;;;31.70;18.70;;;;;;;;;;6245057;23;20440;-69
2024/01/11 09:42:07;;;;;;;30.13;20.30;;;;;;;;;;6245997;23;20398;-69
2024/01/11 09:44:33;;;;;;;27.30;16.40;;;;;;;;;;6245167;23;20362;-64
2024/01/11 09:47:00;;;;;;;31.57;18.03;;;;;;;;;;6245304;23;20467;-68
2024/01/11 09:49:27;;;;;;;25.00;15.80;;;;;;;;;;6245792;23;20382;-68
2024/01/11 09:51:56;;;;;;;40.20;18.33;;;;;;;;;;6245422;23;20387;-68
2024/01/11 09:54:23;;;;;;;29.87;17.03;;;;;;;;;;6247273;23;20386;-69
2024/01/11 09:56:51;;;;;;;27.60;16.60;;;;;;;;;;6245744;23;20382;-68
2024/01/11 09:59:19;;;;;;;29.27;16.83;;;;;;;;;;6245801;23;20413;-69
2024/01/11 10:01:45;;;;;;;27.97;16.33;;;;;;;;;;6245673;23;20463;-68
2024/01/11 10:04:12;;;;;;;29.90;15.23;;;;;;;;;;6245743;23;20398;-68
2024/01/11 10:06:39;;;;;;;26.07;15.40;;;;;;;;;;6245961;23;20370;-68
2024/01/11 10:09:05;;;;;;;30.93;16.30;;;;;;;;;;6219461;23;20398;-68
2024/01/11 10:11:31;;;;;;;27.70;15.83;;;;;;;;;;6246964;23;20370;-68
2024/01/11 10:13:59;;;;;;;25.63;16.03;;;;;;;;;;6247794;23;20457;-68
2024/01/11 10:16:25;;;;;;;22.53;15.80;;;;;;;;;;6220688;23;20382;-68
2024/01/11 10:18:54;;;;;;;26.13;14.37;;;;;;;;;;6247706;23;20382;-68
2024/01/11 10:21:20;;;;;;;25.83;15.43;;;;;;;;;;6247815;23;20474;-68
2024/01/11 10:23:46;;;;;;;21.53;14.70;;;;;;;;;;6247821;23;20942;-68
2024/01/11 10:26:12;;;;;;;23.77;15.60;;;;;;;;;;6247743;23;20376;-68
2024/01/11 10:28:38;;;;;;;26.00;16.83;;;;;;;;;;6247803;23;20438;-68
2024/01/11 10:31:06;;;;;;;25.73;17.53;;;;;;;;;;6247919;23;20378;-68
2024/01/11 10:33:33;;;;;;;28.07;18.50;;;;;;;;;;6247526;23;20386;-67
2024/01/11 10:36:00;;;;;;;23.23;14.50;;;;;;;;;;6247681;23;20382;-68
2024/01/11 10:38:27;;;;;;;23.30;15.73;;;;;;;;;;6247425;23;20425;-68
2024/01/11 10:40:54;;;;;;;27.40;16.53;;;;;;;;;;6247754;23;20378;-68
2024/01/11 10:43:22;;;;;;;32.87;16.27;;;;;;;;;;6247863;23;20398;-68
2024/01/11 10:45:53;;;;;;;32.23;18.70;;;;;;;;;;6247819;23;20386;-70
2024/01/11 10:48:22;;;;;;;27.63;16.80;;;;;;;;;;6248045;23;20477;-68
2024/01/11 10:53:52;;;;;;;29.23;17.80;;;;;;;;;;6247329;23;20450;-67
2024/01/11 10:56:18;;;;;;;27.30;17.60;;;;;;;;;;6246936;23;20469;-67
2024/01/11 10:58:45;;;;;;;26.43;17.77;;;;;;;;;;6247207;23;20397;-68
2024/01/11 11:01:11;;;;;;;29.30;18.53;;;;;;;;;;6220210;23;20390;-68
2024/01/11 11:03:38;;;;;;;26.30;18.07;;;;;;;;;;6247765;23;20378;-68
2024/01/11 11:06:05;;;;;;;24.50;16.27;;;;;;;;;;6247074;23;20370;-68
2024/01/11 11:08:32;;;;;;;29.60;18.10;;;;;;;;;;6247302;23;20434;-68
2024/01/11 11:10:58;;;;;;;32.07;18.67;;;;;;;;;;6247059;23;20424;-68
2024/01/11 11:13:24;;;;;;;27.60;16.43;;;;;;;;;;6247465;23;20439;-68
2024/01/11 11:15:50;;;;;;;30.63;17.80;;;;;;;;;;6220161;23;20951;-68
2024/01/11 11:18:18;;;;;;;28.23;17.07;;;;;;;;;;6247425;23;20801;-68
2024/01/11 11:20:44;;;;;;;29.03;18.40;;;;;;;;;;6220024;23;20397;-68
2024/01/11 11:23:10;;;;;;;26.40;17.47;;;;;;;;;;6247040;23;20464;-68
2024/01/11 11:25:38;;;;;;;28.83;18.60;;;;;;;;;;6246903;23;20860;-69
2024/01/11 11:28:04;;;;;;;29.57;18.40;;;;;;;;;;6247339;23;20805;-68
2024/01/11 11:30:31;;;;;;;28.97;19.73;;;;;;;;;;6246807;23;20397;-68
2024/01/11 11:32:57;;;;;;;28.60;18.00;;;;;;;;;;6247048;23;20382;-68
2024/01/11 11:35:26;;;;;;;23.63;13.60;;;;;;;;;;6247350;23;20371;-68
2024/01/11 11:37:58;;;;;;;25.73;16.63;;;;;;;;;;6246646;23;20394;-68
2024/01/11 11:40:45;;;;;;;32.30;19.00;;;;;;;;;;6247290;23;20824;-68
2024/01/11 11:43:11;;;;;;;26.23;18.13;;;;;;;;;;6246892;23;20363;-68
2024/01/11 11:45:38;;;;;;;30.87;19.47;;;;;;;;;;6247019;23;20439;-68
2024/01/11 11:48:24;;;;;;;28.77;17.50;;;;;;;;;;6246752;23;20438;-68
2024/01/11 11:51:01;;;;;;;28.90;17.43;;;;;;;;;;6247247;23;20844;-68
2024/01/11 11:53:30;;;;;;;28.83;17.43;;;;;;;;;;6247198;23;20842;-68
2024/01/11 11:55:56;;;;;;;28.80;18.00;;;;;;;;;;6246652;23;20398;-68
2024/01/11 11:58:22;;;;;;;25.40;16.73;;;;;;;;;;6247125;23;20469;-68
2024/01/11 12:00:49;;;;;;;33.90;20.20;;;;;;;;;;6246996;23;20370;-68
2024/01/11 12:03:16;;;;;;;34.83;21.73;;;;;;;;;;6245959;23;20376;-68
2024/01/11 12:05:43;;;;;;;29.10;19.40;;;;;;;;;;6246561;23;20155;-68
2024/01/11 12:08:09;;;;;;;31.40;19.53;;;;;;;;;;6244992;23;20466;-68
2024/01/11 12:10:35;;;;;;;31.23;19.47;;;;;;;;;;6244762;23;20366;-68
2024/01/11 12:13:01;;;;;;;36.47;19.30;;;;;;;;;;6246234;23;20823;-68
2024/01/11 12:15:27;;;;;;;27.13;16.10;;;;;;;;;;6246685;23;20407;-68
2024/01/11 12:17:59;;;;;;;28.30;18.73;;;;;;;;;;6246045;23;20382;-68
2024/01/11 12:20:25;;;;;;;28.67;19.10;;;;;;;;;;6245683;23;20374;-68
2024/01/11 12:22:51;;;;;;;30.93;17.63;;;;;;;;;;6245600;23;20837;-68
2024/01/11 12:25:17;;;;;;;30.87;20.63;;;;;;;;;;6245057;23;20362;-68
2024/01/11 12:27:43;;;;;;;24.40;16.93;;;;;;;;;;6245263;23;20433;-68
2024/01/11 12:30:14;;;;;;;32.40;17.57;;;;;;;;;;6245819;23;20374;-68
2024/01/11 12:32:40;;;;;;;27.80;17.53;;;;;;;;;;6245232;23;20517;-68
2024/01/11 12:35:06;;;;;;;25.07;16.97;;;;;;;;;;6244481;23;20374;-68
2024/01/11 12:37:32;;;;;;;33.87;19.43;;;;;;;;;;6245289;23;20378;-67
2024/01/11 12:40:01;;;;;;;29.83;16.87;;;;;;;;;;6244935;23;20449;-68
2024/01/11 12:42:28;;;;;;;33.47;19.53;;;;;;;;;;6245457;23;20436;-68
2024/01/11 12:44:54;;;;;;;29.97;19.47;;;;;;;;;;6245279;23;20847;-68
2024/01/11 12:47:20;;;;;;;40.73;27.13;;;;;;;;;;6245218;23;20497;-68
2024/01/11 12:49:46;;;;;;;32.93;23.00;;;;;;;;;;6245120;23;20705;-68
2024/01/11 12:52:19;;;;;;;25.73;18.30;;;;;;;;;;6244964;23;20386;-68
2024/01/11 12:54:45;;;;;;;39.03;21.23;;;;;;;;;;6245370;23;20375;-68
2024/01/11 12:57:21;;;;;;;35.37;20.60;;;;;;;;;;6245287;23;20859;-68
2024/01/11 12:59:48;;;;;;;30.23;19.40;;;;;;;;;;6245469;23;20374;-68
2024/01/11 13:02:14;;;;;;;33.77;15.57;;;;;;;;;;6245267;23;20370;-68
2024/01/11 13:04:40;;;;;;;28.57;19.20;;;;;;;;;;6245099;23;20383;-68
2024/01/11 13:07:07;;;;;;;29.30;15.87;;;;;;;;;;6245158;23;20475;-68
2024/01/11 13:09:33;;;;;;;27.90;18.70;;;;;;;;;;6218040;23;20407;-67
2024/01/11 13:11:59;;;;;;;33.97;19.43;;;;;;;;;;6218047;23;20414;-68
2024/01/11 13:14:26;;;;;;;37.60;19.13;;;;;;;;;;6244890;23;20366;-68
2024/01/11 13:16:52;;;;;;;39.73;24.00;;;;;;;;;;6245010;23;20380;-67
2024/01/11 13:19:18;;;;;;;30.80;18.73;;;;;;;;;;6245674;23;20383;-67
2024/01/11 13:21:44;;;;;;;34.27;19.40;;;;;;;;;;6244626;23;20408;-68
2024/01/11 13:24:10;;;;;;;31.30;18.20;;;;;;;;;;6245182;23;20843;-67
2024/01/11 13:26:40;;;;;;;29.37;18.50;;;;;;;;;;6244911;23;20366;-68
2024/01/11 13:29:06;;;;;;;21.27;15.17;;;;;;;;;;6245059;23;20358;-68
2024/01/11 13:31:33;;;;;;;34.80;18.67;;;;;;;;;;6217907;23;20672;-68
2024/01/11 13:33:59;;;;;;;28.93;17.80;;;;;;;;;;6245400;23;20470;-68
2024/01/11 13:36:25;;;;;;;31.30;18.13;;;;;;;;;;6245036;23;20428;-68
2024/01/11 13:38:52;;;;;;;30.67;18.60;;;;;;;;;;6244675;23;20433;-68
2024/01/11 13:41:19;;;;;;;37.23;18.43;;;;;;;;;;6245174;23;20453;-68
2024/01/11 13:43:45;;;;;;;36.37;19.07;;;;;;;;;;6245148;23;20378;-68
2024/01/11 13:46:14;;;;;;;25.47;17.37;;;;;;;;;;6217689;23;20397;-70
2024/01/11 13:48:40;;;;;;;35.10;20.17;;;;;;;;;;6244537;23;20441;-67
2024/01/11 13:51:07;;;;;;;33.60;20.47;;;;;;;;;;6217865;23;20382;-68
2024/01/11 13:53:33;;;;;;;36.43;18.10;;;;;;;;;;6244601;23;20873;-68
2024/01/11 13:55:59;;;;;;;37.10;19.60;;;;;;;;;;6244787;23;20385;-68
2024/01/11 13:58:25;;;;;;;28.03;19.27;;;;;;;;;;6244878;23;20833;-68
2024/01/11 14:00:51;;;;;;;34.43;18.67;;;;;;;;;;6245069;23;20399;-68
2024/01/11 14:03:17;;;;;;;34.60;20.60;;;;;;;;;;6217698;23;20473;-68
2024/01/11 14:05:43;;;;;;;36.53;18.73;;;;;;;;;;6244792;23;20378;-67
2024/01/11 14:08:09;;;;;;;32.87;18.80;;;;;;;;;;6244520;23;20430;-67
2024/01/11 14:10:35;;;;;;;30.87;17.60;;;;;;;;;;6244968;23;20377;-68
2024/01/11 14:13:01;;;;;;;29.40;17.13;;;;;;;;;;6244833;23;20381;-68
2024/01/11 14:15:27;;;;;;;31.33;18.23;;;;;;;;;;6217846;23;20711;-68
2024/01/11 14:17:55;;;;;;;25.47;17.37;;;;;;;;;;6244892;23;20378;-68
2024/01/11 14:20:21;;;;;;;42.40;21.90;;;;;;;;;;6244495;23;20371;-68
2024/01/11 14:22:50;;;;;;;48.50;23.57;;;;;;;;;;6244532;23;20386;-68
2024/01/11 14:25:17;;;;;;;40.87;22.97;;;;;;;;;;6244391;23;20405;-68